Aérodrome :
LOGIN :

S'inscrire | Disclaimer

   EN    FR    IT 

 










Légende :    VFR   VFR Marginal   IFR   IFR Intensif   IFR Très Intensif
Visi : 
Plafond : 
>= 8 km
>= 3000ft
5 à 8 km
1000 à 3000 ft
1500m à 5 km
500 à 1000 ft
800 à 1500m
200 à 500 ft
< 800m
< 200 ft
Symboles :   Orages  Brouillard  Fortes neiges  Fortes précipitations  Vent > 20 kt
SIGMETs :   Divers  Orages  Givrage  Turbulence  Onde Orograph.  Cendres Volcan.







- Altitude de l'aérodrome : 844 ft
- Code IATA : OSR


LKMT - Ostrava-Mosnov

DERNIER METAR :
  • 240830Z 23007KT 200V260 9999 -SHRA SCT017 BKN041 14/12 Q1018 NOSIG

METARs EXPIRÉS :
  • 240800Z 24007KT 9999 -SHRA FEW017 BKN041 14/09 Q1018 NOSIG
  • 240730Z 22006KT 190V250 9999 FEW014 BKN041 14/10 Q1018 NOSIG
  • 240700Z 22006KT 190V250 9999 FEW014 BKN041 13/11 Q1018 NOSIG
  • 240630Z 22007KT 9999 FEW011 BKN041 12/11 Q1018 NOSIG
  • 240600Z 23006KT 9999 FEW011 BKN001 12/11 Q1018 NOSIG

TAF TAF LKMT
Valide du 24 à 06h jusqu'au 25 à 12h UTC


240500Z 2406/2512 23005KT 9999 BKN035
TEMPO 2406/2422 7000 SHRA OVC025
PROB30
TEMPO 2409/2420 SCT017TCU OVC023
BECMG 2422/2500 VRB02KT 3000 BR BKN015
TEMPO 2500/2507 2000 RA BR OVC010
PROB30 2501/2505 1300 BR OVC007
BECMG 2507/2509 9999 BKN030
PROB30
TEMPO 2509/2512 -SHRA
Pas de NOTAMs connus pour ce terrain.



MET'MAP, la Météo Aéronautique d'un coup d'oeil ! - Copyright ORBIFLY Décembre 2007 - Disclaimer

ORBIFLY MET'MAP TEAM :

Programmation & Développement : Alexandra Zaïnal
Conception & Développement : Baudouin d'Aumeries
Co-Programmation & Développement : Marc-Olivier Méhu
Soutien technique & logistique : Manuel Goepfert

Contact : metmap@orbifly.com




SOURCES & CREDITS :

   NOAA